Time,TemperatureF,DewpointF,PressureIn,WindDirection,WindDirectionDegrees,WindSpeedMPH,WindSpeedGustMPH,Humidity,HourlyPrecipIn,Conditions,Clouds,dailyrainin,SolarRadiationWatts/m^2,SoftwareType,DateUTC
2013-03-14 00:00:00,32.9,20.9,30.30,NNE,24,10.4,10.4,61,0.00,CLR,,0.00,0.0,WeatherDisplay:10.37,2013-03-14 04:00:00,
2013-03-14 00:05:00,32.8,21.2,30.30,NE,51,11.5,11.5,62,0.00,CLR,,0.00,0.0,WeatherDisplay:10.37,2013-03-14 04:05:00,
2013-03-14 00:10:00,32.7,21.1,30.29,WNW,298,6.9,6.9,62,0.00,CLR,,0.00,0.0,WeatherDisplay:10.37,2013-03-14 04:10:00,
2013-03-14 00:15:00,32.5,20.9,30.29,North,5,23.0,23.0,62,0.00,CLR,,0.00,0.0,WeatherDisplay:10.37,2013-03-14 04:15:00,
2013-03-14 00:20:00,32.5,20.9,30.29,NE,50,18.4,18.4,62,0.00,CLR,,0.00,0.0,WeatherDisplay:10.37,2013-03-14 04:20:00,
2013-03-14 00:25:00,32.4,21.2,30.29,ENE,57,6.0,6.0,63,0.00,CLR,,0.00,0.0,WeatherDisplay:10.37,2013-03-14 04:25:00,
2013-03-14 00:30:00,32.2,20.6,30.29,NW,314,10.4,10.4,62,0.00,CLR,,0.00,0.0,WeatherDisplay:10.37,2013-03-14 04:30:00,
2013-03-14 00:35:00,32.0,20.8,30.29,North,10,4.0,4.0,63,0.00,CLR,,0.00,0.0,WeatherDisplay:10.37,2013-03-14 04:35:00,
2013-03-14 00:40:00,31.9,20.3,30.29,NW,315,3.5,3.5,62,0.00,CLR,,0.00,0.0,WeatherDisplay:10.37,2013-03-14 04:40:00,
2013-03-14 00:45:00,31.9,20.3,30.29,NE,36,23.0,23.0,62,0.00,CLR,,0.00,0.0,WeatherDisplay:10.37,2013-03-14 04:45:00,
2013-03-14 00:50:00,31.9,20.0,30.29,NW,310,16.0,16.0,61,0.00,CLR,,0.00,0.0,WeatherDisplay:10.37,2013-03-14 04:50:00,
2013-03-14 00:55:00,31.9,20.0,30.29,East,87,6.9,6.9,61,0.00,CLR,,0.00,0.0,WeatherDisplay:10.37,2013-03-14 04:55:00,
2013-03-14 01:00:00,31.8,20.3,30.30,WNW,294,12.0,12.0,62,0.00,CLR,,0.00,0.0,WeatherDisplay:10.37,2013-03-14 05:00:00,
2013-03-14 01:05:00,31.8,19.9,30.30,NNW,341,19.6,19.6,61,0.00,CLR,,0.00,0.0,WeatherDisplay:10.37,2013-03-14 05:05:00,
2013-03-14 01:10:00,31.8,19.9,30.29,NNW,340,16.1,16.1,61,0.00,CLR,,0.00,0.0,WeatherDisplay:10.37,2013-03-14 05:10:00,
2013-03-14 01:15:00,31.7,19.8,30.29,NNW,340,12.7,12.7,61,0.00,CLR,,0.00,0.0,WeatherDisplay:10.37,2013-03-14 05:15:00,
2013-03-14 01:20:00,31.6,19.7,30.29,NNW,341,10.4,10.4,61,0.00,CLR,,0.00,0.0,WeatherDisplay:10.37,2013-03-14 05:20:00,
2013-03-14 01:25:00,31.5,20.0,30.29,NE,56,15.0,15.0,62,0.00,CLR,,0.00,0.0,WeatherDisplay:10.37,2013-03-14 05:25:00,
2013-03-14 01:30:00,31.4,19.5,30.29,North,352,1.0,16.0,61,0.00,CLR,,0.00,0.0,WeatherDisplay:10.37,2013-03-14 05:30:00,
2013-03-14 01:35:00,31.3,19.4,30.30,NNW,333,3.5,3.5,61,0.00,CLR,,0.00,0.0,WeatherDisplay:10.37,2013-03-14 05:35:00,
2013-03-14 01:40:00,31.2,19.7,30.30,NNW,327,8.0,14.0,62,0.00,CLR,,0.00,0.0,WeatherDisplay:10.37,2013-03-14 05:40:00,
2013-03-14 01:45:00,31.1,20.0,30.30,WNW,292,5.0,5.0,63,0.00,CLR,,0.00,0.0,WeatherDisplay:10.37,2013-03-14 05:45:00,
2013-03-14 01:50:00,31.0,19.5,30.30,NNW,336,13.0,13.0,62,0.00,CLR,,0.00,0.0,WeatherDisplay:10.37,2013-03-14 05:50:00,
2013-03-14 01:55:00,31.1,19.6,30.30,NNW,345,5.8,5.8,62,0.00,CLR,,0.00,0.0,WeatherDisplay:10.37,2013-03-14 05:55:00,
2013-03-14 02:00:00,31.0,19.5,30.30,NNW,340,4.0,4.2,62,0.00,CLR,,0.00,0.0,WeatherDisplay:10.37,2013-03-14 06:00:00,
2013-03-14 02:05:00,30.9,19.4,30.30,NE,51,3.5,3.5,62,0.00,CLR,,0.00,0.0,WeatherDisplay:10.37,2013-03-14 06:05:00,
2013-03-14 02:10:00,30.8,19.7,30.30,NW,316,1.2,1.2,63,0.00,CLR,,0.00,0.0,WeatherDisplay:10.37,2013-03-14 06:10:00,
2013-03-14 02:15:00,30.5,19.8,30.31,NW,316,0.0,0.0,64,0.00,CLR,,0.00,0.0,WeatherDisplay:10.37,2013-03-14 06:15:00,
2013-03-14 02:20:00,30.1,19.7,30.31,NW,316,3.5,3.5,65,0.00,CLR,,0.00,0.0,WeatherDisplay:10.37,2013-03-14 06:20:00,
2013-03-14 02:25:00,29.9,19.2,30.31,NW,312,2.3,2.3,64,0.00,CLR,,0.00,0.0,WeatherDisplay:10.37,2013-03-14 06:25:00,
2013-03-14 02:30:00,29.8,19.5,30.31,ESE,123,5.8,5.8,65,0.00,CLR,,0.00,0.0,WeatherDisplay:10.37,2013-03-14 06:30:00,
2013-03-14 02:35:00,29.7,19.4,30.30,WNW,301,5.8,5.8,65,0.00,CLR,,0.00,0.0,WeatherDisplay:10.37,2013-03-14 06:35:00,
2013-03-14 02:40:00,29.9,18.8,30.31,WNW,301,0.0,0.0,63,0.00,CLR,,0.00,0.0,WeatherDisplay:10.37,2013-03-14 06:40:00,
2013-03-14 02:45:00,29.9,19.6,30.31,South,178,4.6,4.6,65,0.00,CLR,,0.00,0.0,WeatherDisplay:10.37,2013-03-14 06:45:00,
2013-03-14 02:50:00,29.9,19.6,30.31,South,180,1.2,1.7,65,0.00,CLR,,0.00,0.0,WeatherDisplay:10.37,2013-03-14 06:50:00,
2013-03-14 02:55:00,29.8,19.8,30.32,South,181,4.0,4.1,66,0.00,CLR,,0.00,0.0,WeatherDisplay:10.37,2013-03-14 06:55:00,
2013-03-14 03:00:00,29.7,19.4,30.32,South,186,3.5,3.5,65,0.00,CLR,,0.00,0.0,WeatherDisplay:10.37,2013-03-14 07:00:00,
2013-03-14 03:05:00,29.8,19.1,30.32,SW,234,1.2,1.2,64,0.00,CLR,,0.00,0.0,WeatherDisplay:10.37,2013-03-14 07:05:00,
2013-03-14 03:10:00,29.9,19.2,30.32,NNW,332,15.0,15.0,64,0.00,CLR,,0.00,0.0,WeatherDisplay:10.37,2013-03-14 07:10:00,
2013-03-14 03:15:00,30.0,18.9,30.32,NNW,331,3.5,3.5,63,0.00,CLR,,0.00,0.0,WeatherDisplay:10.37,2013-03-14 07:15:00,
2013-03-14 03:20:00,29.9,18.8,30.31,NNW,328,4.0,4.0,63,0.00,CLR,,0.00,0.0,WeatherDisplay:10.37,2013-03-14 07:20:00,
2013-03-14 03:25:00,29.8,18.7,30.32,NNW,329,2.3,2.3,63,0.00,CLR,,0.00,0.0,WeatherDisplay:10.37,2013-03-14 07:25:00,
2013-03-14 03:30:00,29.7,18.6,30.32,NNW,329,0.0,0.2,63,0.00,CLR,,0.00,0.0,WeatherDisplay:10.37,2013-03-14 07:30:00,
2013-03-14 03:35:00,29.6,18.5,30.31,WSW,253,5.0,6.8,63,0.00,CLR,,0.00,0.0,WeatherDisplay:10.37,2013-03-14 07:35:00,
2013-03-14 03:40:00,28.6,18.7,30.35,ENE,57,3.0,10.0,66,0.00,CLR,,0.00,30.0,WeatherDisplay:10.37,2013-03-14 07:40:00,
2013-03-14 03:41:00,29.4,18.3,30.31,WSW,238,4.6,4.6,63,0.00,CLR,,0.00,0.0,WeatherDisplay:10.37,2013-03-14 07:41:00,
2013-03-14 03:46:00,29.3,19.0,30.31,WSW,238,5.8,5.8,65,0.00,CLR,,0.00,0.0,WeatherDisplay:10.37,2013-03-14 07:46:00,
2013-03-14 03:50:00,28.7,18.8,30.36,East,82,3.0,8.0,66,0.00,CLR,,0.00,33.0,WeatherDisplay:10.37,2013-03-14 07:50:00,
2013-03-14 03:51:00,29.1,18.4,30.31,West,278,5.0,5.0,64,0.00,CLR,,0.00,0.0,WeatherDisplay:10.37,2013-03-14 07:51:00,
2013-03-14 03:56:00,29.1,18.4,30.31,WSW,239,4.0,4.0,64,0.00,CLR,,0.00,0.0,WeatherDisplay:10.37,2013-03-14 07:56:00,
2013-03-14 04:00:00,28.9,19.3,30.35,East,90,2.0,5.0,67,0.00,OVC,,0.00,37.0,WeatherDisplay:10.37,2013-03-14 08:00:00,
2013-03-14 04:01:00,29.0,18.7,30.31,WSW,242,4.6,4.8,65,0.00,CLR,,0.00,0.0,WeatherDisplay:10.37,2013-03-14 08:01:00,
2013-03-14 04:06:00,29.0,18.3,30.31,West,268,12.7,12.7,64,0.00,CLR,,0.00,0.0,WeatherDisplay:10.37,2013-03-14 08:06:00,
2013-03-14 04:10:00,29.0,18.7,30.36,East,90,3.0,6.0,65,0.00,OVC,,0.00,46.0,WeatherDisplay:10.37,2013-03-14 08:10:00,
2013-03-14 04:11:00,29.2,18.2,30.31,West,271,12.7,12.7,63,0.00,CLR,,0.00,0.0,WeatherDisplay:10.37,2013-03-14 08:11:00,
2013-03-14 04:16:00,29.3,18.3,30.31,NW,312,5.8,5.8,63,0.00,CLR,,0.00,0.0,WeatherDisplay:10.37,2013-03-14 08:16:00,
2013-03-14 04:20:00,29.6,19.3,30.37,East,90,1.0,6.0,65,0.00,OVC,,0.00,56.0,WeatherDisplay:10.37,2013-03-14 08:20:00,
2013-03-14 04:21:00,29.3,18.3,30.31,NW,311,0.0,0.0,63,0.00,CLR,,0.00,0.0,WeatherDisplay:10.37,2013-03-14 08:21:00,
2013-03-14 04:26:00,29.2,18.5,30.31,NW,311,3.5,3.5,64,0.00,CLR,,0.00,0.0,WeatherDisplay:10.37,2013-03-14 08:26:00,
2013-03-14 04:30:00,29.9,18.8,30.38,East,90,0.0,3.0,63,0.00,OVC,,0.00,137.0,WeatherDisplay:10.37,2013-03-14 08:30:00,
2013-03-14 04:31:00,28.9,18.6,30.31,NNW,345,14.0,14.0,65,0.00,CLR,,0.00,0.0,WeatherDisplay:10.37,2013-03-14 08:31:00,
2013-03-14 04:36:00,29.0,18.7,30.31,NW,311,5.8,5.8,65,0.00,CLR,,0.00,0.0,WeatherDisplay:10.37,2013-03-14 08:36:00,
2013-03-14 04:40:00,30.5,19.4,30.38,East,90,0.0,3.0,63,0.00,OVC,,0.00,153.0,WeatherDisplay:10.37,2013-03-14 08:40:00,
2013-03-14 04:41:00,29.0,18.7,30.31,NE,40,13.8,13.8,65,0.00,CLR,,0.00,0.0,WeatherDisplay:10.37,2013-03-14 08:41:00,
2013-03-14 04:46:00,29.0,18.7,30.31,WNW,296,6.9,6.9,65,0.00,CLR,,0.00,0.0,WeatherDisplay:10.37,2013-03-14 08:46:00,
2013-03-14 04:50:00,31.3,19.4,30.39,East,90,1.0,4.0,61,0.00,OVC,,0.00,282.0,WeatherDisplay:10.37,2013-03-14 08:50:00,
2013-03-14 04:51:00,29.0,18.7,30.31,WNW,296,3.5,3.5,65,0.00,CLR,,0.00,0.0,WeatherDisplay:10.37,2013-03-14 08:51:00,
2013-03-14 04:56:00,28.9,18.6,30.30,WNW,299,3.5,3.5,65,0.00,CLR,,0.00,0.0,WeatherDisplay:10.37,2013-03-14 08:56:00,
2013-03-14 05:00:00,32.0,19.7,30.40,East,90,0.0,3.0,60,0.00,OVC,,0.00,385.0,WeatherDisplay:10.37,2013-03-14 09:00:00,
2013-03-14 05:01:00,28.7,19.1,30.30,SW,219,10.4,10.4,67,0.00,CLR,,0.00,0.0,WeatherDisplay:10.37,2013-03-14 09:01:00,
2013-03-14 05:06:00,28.6,18.7,30.30,WNW,284,3.5,3.7,66,0.00,CLR,,0.00,0.0,WeatherDisplay:10.37,2013-03-14 09:06:00,
2013-03-14 05:10:00,32.8,20.0,30.40,East,90,0.0,0.0,59,0.00,OVC,,0.00,424.0,WeatherDisplay:10.37,2013-03-14 09:10:00,
2013-03-14 05:11:00,28.4,18.8,30.31,WNW,284,4.6,4.6,67,0.00,CLR,,0.00,0.0,WeatherDisplay:10.37,2013-03-14 09:11:00,
2013-03-14 05:17:00,28.4,18.8,30.31,WNW,284,3.5,3.5,67,0.00,CLR,,0.00,0.0,WeatherDisplay:10.37,2013-03-14 09:17:00,
2013-03-14 05:20:00,33.6,20.8,30.40,East,90,3.0,5.0,59,0.00,OVC,,0.00,459.0,WeatherDisplay:10.37,2013-03-14 09:20:00,
2013-03-14 05:30:00,34.2,20.1,30.40,East,90,0.0,6.0,56,0.00,OVC,,0.00,489.0,WeatherDisplay:10.37,2013-03-14 09:30:00,
2013-03-14 05:40:00,35.0,21.3,30.40,East,90,3.0,6.0,57,0.00,OVC,,0.00,527.0,WeatherDisplay:10.37,2013-03-14 09:40:00,
2013-03-14 05:50:00,35.8,21.6,30.41,West,268,5.0,8.0,56,0.00,OVC,,0.00,561.0,WeatherDisplay:10.37,2013-03-14 09:50:00,
2013-03-14 06:00:00,36.2,21.1,30.40,WSW,248,0.0,7.0,54,0.00,OVC,,0.00,591.0,WeatherDisplay:10.37,2013-03-14 10:00:00,
2013-03-14 06:10:00,37.3,23.9,30.40,WSW,248,5.0,7.0,58,0.00,OVC,,0.00,621.0,WeatherDisplay:10.37,2013-03-14 10:10:00,
2013-03-14 06:20:00,38.6,23.8,30.39,WSW,248,3.0,7.0,55,0.00,OVC,,0.00,647.0,WeatherDisplay:10.37,2013-03-14 10:20:00,
2013-03-14 06:30:00,39.3,21.2,30.38,SW,231,1.0,11.0,48,0.00,OVC,,0.00,686.0,WeatherDisplay:10.37,2013-03-14 10:30:00,
2013-03-14 06:40:00,40.7,23.5,30.38,WNW,293,5.0,11.0,50,0.00,OVC,,0.00,700.0,WeatherDisplay:10.37,2013-03-14 10:40:00,
2013-03-14 06:50:00,41.6,20.2,30.38,NNW,344,3.0,12.0,42,0.00,OVC,,0.00,721.0,WeatherDisplay:10.37,2013-03-14 10:50:00,
2013-03-14 07:00:00,41.9,18.7,30.39,NNE,27,2.0,13.0,39,0.00,OVC,,0.00,740.0,WeatherDisplay:10.37,2013-03-14 11:00:00,
2013-03-14 07:10:00,42.9,21.4,30.39,North,349,7.0,10.0,42,0.00,OVC,,0.00,761.0,WeatherDisplay:10.37,2013-03-14 11:10:00,
2013-03-14 07:20:00,43.7,20.9,30.39,NW,313,3.0,8.0,40,0.00,OVC,,0.00,780.0,WeatherDisplay:10.37,2013-03-14 11:20:00,
2013-03-14 07:30:00,44.5,19.2,30.39,North,1,5.0,9.0,36,0.00,OVC,,0.00,793.0,WeatherDisplay:10.37,2013-03-14 11:30:00,
2013-03-14 07:40:00,45.1,21.0,30.39,NNW,336,8.0,14.0,38,0.00,OVC,,0.00,809.0,WeatherDisplay:10.37,2013-03-14 11:40:00,
2013-03-14 07:50:00,45.3,20.5,30.39,NW,325,8.0,15.0,37,0.00,OVC,,0.00,819.0,WeatherDisplay:10.37,2013-03-14 11:50:00,
2013-03-14 08:00:00,45.6,19.5,30.39,NNW,333,10.0,16.0,35,0.00,CLR,,0.00,830.0,WeatherDisplay:10.37,2013-03-14 12:00:00,
2013-03-14 08:10:00,45.9,18.4,30.38,NNW,344,7.0,18.0,33,0.00,CLR,,0.00,837.0,WeatherDisplay:10.37,2013-03-14 12:10:00,
2013-03-14 08:20:00,46.4,17.4,30.38,North,353,6.0,16.0,31,0.00,CLR,,0.00,847.0,WeatherDisplay:10.37,2013-03-14 12:20:00,
2013-03-14 08:30:00,46.8,19.9,30.37,NW,323,7.0,16.0,34,0.00,CLR,,0.00,851.0,WeatherDisplay:10.37,2013-03-14 12:30:00,
2013-03-14 08:40:00,47.5,17.6,30.37,NNW,331,5.0,17.0,30,0.00,CLR,,0.00,854.0,WeatherDisplay:10.37,2013-03-14 12:40:00,
2013-03-14 08:50:00,48.2,18.9,30.36,NW,326,7.0,14.0,31,0.00,CLR,,0.00,856.0,WeatherDisplay:10.37,2013-03-14 12:50:00,
2013-03-14 09:00:00,48.8,17.1,30.36,NNW,331,5.0,12.0,28,0.00,CLR,,0.00,856.0,WeatherDisplay:10.37,2013-03-14 13:00:00,
2013-03-14 09:10:00,49.3,19.1,30.36,NW,325,8.0,15.0,30,0.00,CLR,,0.00,853.0,WeatherDisplay:10.37,2013-03-14 13:10:00,
2013-03-14 09:20:00,50.0,17.3,30.36,NW,306,12.0,16.0,27,0.00,CLR,,0.00,847.0,WeatherDisplay:10.37,2013-03-14 13:20:00,
2013-03-14 09:30:00,50.0,16.4,30.36,North,355,12.0,17.0,26,0.00,CLR,,0.00,868.0,WeatherDisplay:10.37,2013-03-14 13:30:00,
2013-03-14 09:40:00,50.4,20.9,30.34,NW,321,6.0,17.0,31,0.00,CLR,,0.00,814.0,WeatherDisplay:10.37,2013-03-14 13:40:00,
2013-03-14 09:50:00,51.0,18.1,30.34,NW,321,7.0,16.0,27,0.00,CLR,,0.00,826.0,WeatherDisplay:10.37,2013-03-14 13:50:00,
2013-03-14 10:00:00,51.2,20.8,30.34,NNW,345,12.0,20.0,30,0.00,CLR,,0.00,828.0,WeatherDisplay:10.37,2013-03-14 14:00:00,
2013-03-14 10:10:00,51.5,21.8,30.33,NW,304,8.0,16.0,31,0.00,CLR,,0.00,898.0,WeatherDisplay:10.37,2013-03-14 14:10:00,
2013-03-14 10:20:00,52.0,21.5,30.32,NW,315,10.0,13.0,30,0.00,CLR,,0.00,756.0,WeatherDisplay:10.37,2013-03-14 14:20:00,
2013-03-14 10:30:00,51.6,24.8,30.31,WNW,290,8.0,17.0,35,0.00,CLR,,0.00,718.0,WeatherDisplay:10.37,2013-03-14 14:30:00,
2013-03-14 10:40:00,52.2,23.2,30.31,NNW,331,12.0,14.0,32,0.00,CLR,,0.00,744.0,WeatherDisplay:10.37,2013-03-14 14:40:00,
2013-03-14 10:50:00,51.6,24.1,30.31,WNW,289,10.0,16.0,34,0.00,CLR,,0.00,722.0,WeatherDisplay:10.37,2013-03-14 14:50:00,
2013-03-14 11:00:00,52.2,23.2,30.30,NW,308,5.0,15.0,32,0.00,CLR,,0.00,700.0,WeatherDisplay:10.37,2013-03-14 15:00:00,
2013-03-14 11:10:00,52.1,22.3,30.30,WNW,285,7.0,19.0,31,0.00,CLR,,0.00,687.0,WeatherDisplay:10.37,2013-03-14 15:10:00,
2013-03-14 11:20:00,51.9,23.7,30.30,WNW,296,7.0,15.0,33,0.00,CLR,,0.00,566.0,WeatherDisplay:10.37,2013-03-14 15:20:00,
2013-03-14 11:30:00,52.3,24.7,30.31,WNW,303,9.0,15.0,34,0.00,FEW,,0.00,508.0,WeatherDisplay:10.37,2013-03-14 15:30:00,
2013-03-14 11:40:00,52.3,25.4,30.30,West,278,14.0,21.0,35,0.00,SCT,,0.00,447.0,WeatherDisplay:10.37,2013-03-14 15:40:00,
2013-03-14 11:50:00,51.9,25.8,30.30,West,274,12.0,17.0,36,0.00,SCT,,0.00,457.0,WeatherDisplay:10.37,2013-03-14 15:50:00,
2013-03-14 12:00:00,51.2,23.0,30.31,WNW,303,15.0,20.0,33,0.00,BKN,,0.00,322.0,WeatherDisplay:10.37,2013-03-14 16:00:00,
2013-03-14 12:10:00,50.6,23.9,30.30,WNW,285,13.0,18.0,35,0.00,BKN,,0.00,257.0,WeatherDisplay:10.37,2013-03-14 16:10:00,
2013-03-14 12:20:00,51.3,23.8,30.29,West,280,12.0,16.0,34,0.00,BKN,,0.00,352.0,WeatherDisplay:10.37,2013-03-14 16:20:00,
2013-03-14 12:30:00,51.1,24.4,30.29,WSW,254,6.0,18.0,35,0.00,SCT,,0.00,448.0,WeatherDisplay:10.37,2013-03-14 16:30:00,
2013-03-14 17:34:00,51.4,23.2,30.29,WNW,285,12.0,12.0,33,0.00,SCT,,0.00,429.0,WeatherDisplay:10.37,2013-03-14 21:34:00,
2013-03-14 17:39:00,51.1,23.0,30.29,WNW,290,16.1,16.1,33,0.00,BKN,,0.00,406.0,WeatherDisplay:10.37,2013-03-14 21:39:00,
2013-03-14 17:44:00,51.1,23.7,30.29,WNW,284,17.3,17.3,34,0.00,BKN,,0.00,388.0,WeatherDisplay:10.37,2013-03-14 21:44:00,
2013-03-14 17:49:00,51.3,24.5,30.29,WSW,257,17.3,17.3,35,0.00,BKN,,0.00,373.0,WeatherDisplay:10.37,2013-03-14 21:49:00,
2013-03-14 17:54:00,51.2,21.6,30.29,WNW,284,12.7,12.7,31,0.00,BKN,,0.00,353.0,WeatherDisplay:10.37,2013-03-14 21:54:00,
2013-03-14 17:59:00,51.0,22.9,30.29,WNW,290,12.7,12.7,33,0.00,BKN,,0.00,332.0,WeatherDisplay:10.37,2013-03-14 21:59:00,
2013-03-14 18:04:00,51.1,23.0,30.29,WNW,290,12.7,12.7,33,0.00,BKN,,0.00,315.0,WeatherDisplay:10.37,2013-03-14 22:04:00,
2013-03-14 18:09:00,50.9,25.5,30.29,WNW,294,11.5,11.5,37,0.00,BKN,,0.00,299.0,WeatherDisplay:10.37,2013-03-14 22:09:00,
2013-03-14 18:14:00,51.0,23.6,30.29,West,272,14.0,14.0,34,0.00,BKN,,0.00,283.0,WeatherDisplay:10.37,2013-03-14 22:14:00,
2013-03-14 18:19:00,50.9,22.1,30.29,West,275,12.0,12.0,32,0.00,BKN,,0.00,267.0,WeatherDisplay:10.37,2013-03-14 22:19:00,
2013-03-14 18:24:00,50.9,22.1,30.29,West,271,13.0,13.0,32,0.00,BKN,,0.00,200.0,WeatherDisplay:10.37,2013-03-14 22:24:00,
2013-03-14 18:29:00,50.9,21.3,30.30,WNW,300,16.0,16.0,31,0.00,BKN,,0.00,230.0,WeatherDisplay:10.37,2013-03-14 22:29:00,
2013-03-14 18:34:00,51.0,20.6,30.30,NNW,333,11.5,11.5,30,0.00,BKN,,0.00,216.0,WeatherDisplay:10.37,2013-03-14 22:34:00,
2013-03-14 18:40:00,50.7,16.1,30.29,NNW,327,12.7,12.7,25,0.00,BKN,,0.00,218.0,WeatherDisplay:10.37,2013-03-14 22:40:00,
2013-03-14 18:45:00,50.5,15.9,30.29,NNW,334,11.5,11.5,25,0.00,BKN,,0.00,204.0,WeatherDisplay:10.37,2013-03-14 22:45:00,
2013-03-14 18:50:00,50.4,14.9,30.29,NW,318,13.8,13.8,24,0.00,BKN,,0.00,163.0,WeatherDisplay:10.37,2013-03-14 22:50:00,
2013-03-14 18:55:00,50.1,16.5,30.30,WNW,300,11.5,11.5,26,0.00,BKN,,0.00,144.0,WeatherDisplay:10.37,2013-03-14 22:55:00,
2013-03-14 19:00:00,49.9,15.4,30.30,NW,305,13.0,16.0,25,0.00,BKN,,0.00,125.0,WeatherDisplay:10.37,2013-03-14 23:00:00,
2013-03-14 19:05:00,49.6,16.1,30.30,WNW,294,13.8,13.8,26,0.00,CLR,,0.00,42.0,WeatherDisplay:10.37,2013-03-14 23:05:00,
2013-03-14 19:10:00,49.0,16.4,30.30,NW,312,7.0,17.0,27,0.00,CLR,,0.00,23.0,WeatherDisplay:10.37,2013-03-14 23:10:00,
2013-03-14 19:15:00,48.3,13.1,30.30,NNW,329,12.7,12.7,24,0.00,CLR,,0.00,21.0,WeatherDisplay:10.37,2013-03-14 23:15:00,
2013-03-14 19:20:00,47.9,12.8,30.30,NNW,340,12.0,12.0,24,0.00,CLR,,0.00,21.0,WeatherDisplay:10.37,2013-03-14 23:20:00,
2013-03-14 19:25:00,47.6,13.5,30.30,NNW,328,5.8,5.8,25,0.00,CLR,,0.00,16.0,WeatherDisplay:10.37,2013-03-14 23:25:00,
2013-03-14 19:30:00,47.2,14.0,30.30,NW,321,5.0,14.0,26,0.00,CLR,,0.00,12.0,WeatherDisplay:10.37,2013-03-14 23:30:00,
2013-03-14 19:35:00,46.8,13.7,30.30,WNW,296,6.9,6.9,26,0.00,CLR,,0.00,11.0,WeatherDisplay:10.37,2013-03-14 23:35:00,
2013-03-14 19:40:00,46.6,12.6,30.30,WNW,293,6.9,6.9,25,0.00,CLR,,0.00,7.0,WeatherDisplay:10.37,2013-03-14 23:40:00,
2013-03-14 19:45:00,46.4,14.2,30.30,WNW,289,6.0,6.0,27,0.00,CLR,,0.00,0.0,WeatherDisplay:10.37,2013-03-14 23:45:00,
2013-03-14 19:50:00,45.8,17.6,30.31,West,262,12.7,12.7,32,0.00,CLR,,0.00,0.0,WeatherDisplay:10.37,2013-03-14 23:50:00,
2013-03-14 19:55:00,45.1,18.4,30.31,West,267,11.5,11.5,34,0.00,CLR,,0.00,0.0,WeatherDisplay:10.37,2013-03-14 23:55:00,
2013-03-14 20:00:00,44.8,18.1,30.30,West,277,13.8,13.8,34,0.00,CLR,,0.00,0.0,WeatherDisplay:10.37,2013-03-15 00:00:00,
2013-03-14 20:05:00,44.6,17.9,30.30,West,277,5.8,5.8,34,0.00,CLR,,0.00,0.0,WeatherDisplay:10.37,2013-03-15 00:05:00,
2013-03-14 20:10:00,44.5,17.1,30.30,WNW,284,5.8,5.8,33,0.00,CLR,,0.00,0.0,WeatherDisplay:10.37,2013-03-15 00:10:00,
2013-03-14 20:15:00,44.4,17.1,30.30,WNW,284,3.5,3.5,33,0.00,CLR,,0.00,0.0,WeatherDisplay:10.37,2013-03-15 00:15:00,
2013-03-14 20:20:00,44.3,17.0,30.30,WNW,284,0.0,0.0,33,0.00,CLR,,0.00,0.0,WeatherDisplay:10.37,2013-03-15 00:20:00,
2013-03-14 20:25:00,44.2,17.6,30.30,West,275,4.6,4.6,34,0.00,CLR,,0.00,0.0,WeatherDisplay:10.37,2013-03-15 00:25:00,
2013-03-14 20:30:00,43.9,16.6,30.30,West,265,5.8,5.8,33,0.00,CLR,,0.00,0.0,WeatherDisplay:10.37,2013-03-15 00:30:00,
2013-03-14 20:35:00,43.9,17.3,30.30,WSW,246,7.0,7.0,34,0.00,CLR,,0.00,0.0,WeatherDisplay:10.37,2013-03-15 00:35:00,
2013-03-14 20:40:00,43.8,17.2,30.30,WSW,238,4.6,4.6,34,0.00,CLR,,0.00,0.0,WeatherDisplay:10.37,2013-03-15 00:40:00,
2013-03-14 20:45:00,43.7,17.8,30.30,WSW,238,0.0,0.0,35,0.00,CLR,,0.00,0.0,WeatherDisplay:10.37,2013-03-15 00:45:00,
2013-03-14 20:50:00,43.6,17.0,30.30,WSW,238,4.6,4.6,34,0.00,CLR,,0.00,0.0,WeatherDisplay:10.37,2013-03-15 00:50:00,
2013-03-14 20:55:00,43.5,18.9,30.30,WSW,238,3.5,3.5,37,0.00,CLR,,0.00,0.0,WeatherDisplay:10.37,2013-03-15 00:55:00,
2013-03-14 21:00:00,43.1,20.4,30.31,WSW,238,5.0,5.0,40,0.00,CLR,,0.00,0.0,WeatherDisplay:10.37,2013-03-15 01:00:00,
2013-03-14 21:05:00,42.9,18.4,30.31,WSW,246,8.1,8.1,37,0.00,CLR,,0.00,0.0,WeatherDisplay:10.37,2013-03-15 01:05:00,
2013-03-14 21:10:00,43.0,18.5,30.31,WSW,237,5.8,5.8,37,0.00,CLR,,0.00,0.0,WeatherDisplay:10.37,2013-03-15 01:10:00,
2013-03-14 21:15:00,43.0,19.1,30.31,SW,236,4.0,4.0,38,0.00,CLR,,0.00,0.0,WeatherDisplay:10.37,2013-03-15 01:15:00,
2013-03-14 21:20:00,43.0,19.1,30.30,SW,236,5.8,5.8,38,0.00,CLR,,0.00,0.0,WeatherDisplay:10.37,2013-03-15 01:20:00,
2013-03-14 21:25:00,43.0,19.1,30.31,SW,236,4.6,4.6,38,0.00,CLR,,0.00,0.0,WeatherDisplay:10.37,2013-03-15 01:25:00,
2013-03-14 21:30:00,43.2,19.3,30.31,SW,234,9.2,9.2,38,0.00,CLR,,0.00,0.0,WeatherDisplay:10.37,2013-03-15 01:30:00,
2013-03-14 21:35:00,43.3,19.4,30.32,SW,234,6.0,6.0,38,0.00,CLR,,0.00,0.0,WeatherDisplay:10.37,2013-03-15 01:35:00,
2013-03-14 21:40:00,43.4,19.5,30.32,SW,230,6.9,6.9,38,0.00,CLR,,0.00,0.0,WeatherDisplay:10.37,2013-03-15 01:40:00,
2013-03-14 21:45:00,43.5,20.2,30.32,SW,230,5.0,5.0,39,0.00,CLR,,0.00,0.0,WeatherDisplay:10.37,2013-03-15 01:45:00,
2013-03-14 21:50:00,43.5,19.5,30.32,SW,231,4.6,4.6,38,0.00,CLR,,0.00,0.0,WeatherDisplay:10.37,2013-03-15 01:50:00,
2013-03-14 21:55:00,43.5,19.5,30.32,SW,224,5.8,5.8,38,0.00,CLR,,0.00,0.0,WeatherDisplay:10.37,2013-03-15 01:55:00,
2013-03-14 22:00:00,43.5,20.2,30.32,NW,313,10.4,10.4,39,0.00,CLR,,0.00,0.0,WeatherDisplay:10.37,2013-03-15 02:00:00,
2013-03-14 22:05:00,43.7,20.9,30.32,NW,313,2.3,2.3,40,0.00,CLR,,0.00,0.0,WeatherDisplay:10.37,2013-03-15 02:05:00,
2013-03-14 22:10:00,43.9,20.5,30.32,WNW,294,4.6,4.6,39,0.00,CLR,,0.00,0.0,WeatherDisplay:10.37,2013-03-15 02:10:00,
2013-03-14 22:15:00,44.0,21.8,30.31,WNW,293,3.5,3.5,41,0.00,CLR,,0.00,0.0,WeatherDisplay:10.37,2013-03-15 02:15:00,
2013-03-14 22:20:00,44.2,21.4,30.31,SE,145,4.6,0.0,40,0.00,CLR,,0.00,0.0,WeatherDisplay:10.37,2013-03-15 02:20:00,
2013-03-14 22:25:00,44.3,22.1,30.31,WNW,298,6.9,6.9,41,0.00,CLR,,0.00,0.0,WeatherDisplay:10.37,2013-03-15 02:25:00,
2013-03-14 22:30:00,44.5,23.4,30.31,WSW,257,13.8,13.8,43,0.00,CLR,,0.00,0.0,WeatherDisplay:10.37,2013-03-15 02:30:00,
2013-03-14 22:35:00,44.4,23.8,30.32,WNW,286,4.6,4.6,44,0.00,CLR,,0.00,0.0,WeatherDisplay:10.37,2013-03-15 02:35:00,
2013-03-14 22:40:00,44.4,23.8,30.31,WNW,284,5.8,5.8,44,0.00,CLR,,0.00,0.0,WeatherDisplay:10.37,2013-03-15 02:40:00,
2013-03-14 22:45:00,44.3,23.2,30.31,WNW,284,3.5,3.5,43,0.00,CLR,,0.00,0.0,WeatherDisplay:10.37,2013-03-15 02:45:00,
2013-03-14 22:50:00,44.3,22.6,30.31,NNW,344,15.0,15.0,42,0.00,CLR,,0.00,0.0,WeatherDisplay:10.37,2013-03-15 02:50:00,
2013-03-14 22:55:00,44.4,22.7,30.31,NNW,339,6.9,6.9,42,0.00,CLR,,0.00,0.0,WeatherDisplay:10.37,2013-03-15 02:55:00,
2013-03-14 23:01:00,44.3,23.2,30.31,WNW,302,5.8,5.8,43,0.00,CLR,,0.00,0.0,WeatherDisplay:10.37,2013-03-15 03:01:00,
2013-03-14 23:06:00,44.2,24.2,30.31,NW,319,6.0,6.0,45,0.00,CLR,,0.00,0.0,WeatherDisplay:10.37,2013-03-15 03:06:00,
2013-03-14 23:11:00,44.0,25.0,30.31,NNW,348,10.4,10.4,47,0.00,CLR,,0.00,0.0,WeatherDisplay:10.37,2013-03-15 03:11:00,
2013-03-14 23:16:00,43.9,24.4,30.30,WNW,288,3.5,0.0,46,0.00,CLR,,0.00,0.0,WeatherDisplay:10.37,2013-03-15 03:16:00,
2013-03-14 23:21:00,43.7,25.8,30.30,WNW,298,11.5,11.5,49,0.00,CLR,,0.00,0.0,WeatherDisplay:10.37,2013-03-15 03:21:00,
2013-03-14 23:26:00,43.5,26.1,30.29,WNW,296,5.8,5.8,50,0.00,CLR,,0.00,0.0,WeatherDisplay:10.37,2013-03-15 03:26:00,
2013-03-14 23:31:00,43.4,26.0,30.30,NW,307,5.0,5.0,50,0.00,CLR,,0.00,0.0,WeatherDisplay:10.37,2013-03-15 03:31:00,
2013-03-14 23:36:00,43.2,26.7,30.30,West,279,0.0,0.0,52,0.00,CLR,,0.00,0.0,WeatherDisplay:10.37,2013-03-15 03:36:00,
2013-03-14 23:41:00,43.0,25.6,30.30,West,279,0.0,0.0,50,0.00,CLR,,0.00,0.0,WeatherDisplay:10.37,2013-03-15 03:41:00,
2013-03-14 23:46:00,42.9,26.0,30.30,West,279,0.0,0.0,51,0.00,CLR,,0.00,0.0,WeatherDisplay:10.37,2013-03-15 03:46:00,
2013-03-14 23:51:00,42.7,25.8,30.29,West,279,0.0,0.0,51,0.00,CLR,,0.00,0.0,WeatherDisplay:10.37,2013-03-15 03:51:00,
2013-03-14 23:56:00,42.5,26.1,30.29,West,279,0.0,0.0,52,0.00,CLR,,0.00,0.0,WeatherDisplay:10.37,2013-03-15 03:56:00,